createdAt,value
2018-03-01T00:00:01.612Z,53.83
2018-03-01T00:01:11.465Z,54.3
2018-03-01T00:02:21.684Z,54.3
2018-03-01T00:03:31.503Z,54.11
2018-03-01T00:04:41.695Z,54.11
2018-03-01T00:05:51.832Z,54.3
2018-03-01T00:07:01.712Z,53.83
2018-03-01T00:08:11.482Z,53.92
2018-03-01T00:09:21.602Z,54.11
2018-03-01T00:10:31.447Z,54.02
2018-03-01T00:11:41.348Z,54.11
2018-03-01T00:12:51.259Z,54.02
2018-03-01T00:14:02.110Z,54.21
2018-03-01T00:15:12.241Z,53.83
2018-03-01T00:16:22.354Z,54.02
2018-03-01T00:17:32.245Z,54.49
2018-03-01T00:18:42.343Z,54.3
2018-03-01T00:19:51.923Z,54.58
2018-03-01T00:21:02.078Z,54.3
2018-03-01T00:22:11.953Z,54.58
2018-03-01T00:23:22.131Z,54.39
2018-03-01T00:24:32.134Z,54.39
2018-03-01T00:25:41.801Z,54.58
2018-03-01T00:26:51.936Z,54.39
2018-03-01T00:28:02.163Z,54.68
2018-03-01T00:29:12.044Z,54.39
2018-03-01T00:30:22.136Z,54.58
2018-03-01T00:31:31.986Z,54.58
2018-03-01T00:32:42.149Z,54.39
2018-03-01T00:33:52.315Z,54.49
2018-03-01T00:35:02.135Z,54.39
2018-03-01T00:36:11.895Z,54.77
2018-03-01T00:37:21.753Z,54.86
2018-03-01T00:38:31.916Z,54.68
2018-03-01T00:39:42.069Z,54.77
2018-03-01T00:40:51.954Z,55.24
2018-03-01T00:42:01.817Z,54.58
2018-03-01T00:43:11.732Z,54.68
2018-03-01T00:44:21.876Z,54.86
2018-03-01T00:45:31.804Z,54.96
2018-03-01T00:46:41.679Z,55.15
2018-03-01T00:47:51.802Z,55.43
2018-03-01T00:49:01.954Z,55.43
2018-03-01T00:50:12.148Z,55.43
2018-03-01T00:51:22.243Z,55.43
2018-03-01T00:52:32.421Z,55.33
2018-03-01T00:53:42.612Z,55.43
2018-03-01T00:54:52.769Z,55.24
2018-03-01T00:56:02.892Z,55.33
2018-03-01T00:57:12.745Z,55.52
2018-03-01T00:58:22.909Z,55.15
2018-03-01T00:59:33.019Z,55.43
2018-03-01T01:00:43.154Z,55.43
2018-03-01T01:01:53.132Z,55.33
2018-03-01T01:03:03.448Z,55.43
2018-03-01T01:04:13.328Z,55.9
2018-03-01T01:05:23.202Z,55.62
2018-03-01T01:06:34.472Z,55.62
2018-03-01T01:07:44.707Z,55.71
2018-03-01T01:08:54.651Z,55.71
2018-03-01T01:10:04.996Z,55.43
2018-03-01T01:11:14.906Z,55.71
2018-03-01T01:12:25.160Z,55.52
2018-03-01T01:13:35.348Z,55.71
2018-03-01T01:14:45.507Z,55.8
2018-03-01T01:15:55.606Z,55.71
2018-03-01T01:17:05.762Z,55.62
2018-03-01T01:18:15.895Z,55.8
2018-03-01T01:19:26.104Z,55.43
2018-03-01T01:20:36.450Z,55.52
2018-03-01T01:21:46.592Z,56.09
2018-03-01T01:22:56.711Z,55.8
2018-03-01T01:24:06.852Z,55.8
2018-03-01T01:25:16.729Z,55.9
2018-03-01T01:26:26.636Z,55.8
2018-03-01T01:27:36.794Z,55.99
2018-03-01T01:28:46.931Z,56.37
2018-03-01T01:29:57.092Z,56.46
2018-03-01T01:31:07.242Z,56.46
2018-03-01T01:32:17.418Z,56.27
2018-03-01T01:33:27.183Z,56.46
2018-03-01T01:34:37.314Z,56.37
2018-03-01T01:35:46.928Z,56.18
2018-03-01T01:36:57.029Z,56.37
2018-03-01T01:38:06.882Z,56.27
2018-03-01T01:39:17.990Z,56.27
2018-03-01T01:40:28.730Z,56.37
2018-03-01T01:41:38.860Z,56.46
2018-03-01T01:42:49.470Z,56.37
2018-03-01T01:43:59.508Z,56.37
2018-03-01T01:45:09.643Z,56.27
2018-03-01T01:46:19.992Z,56.18
2018-03-01T01:47:30.112Z,56.37
2018-03-01T01:48:40.714Z,56.65
2018-03-01T01:49:50.836Z,56.93
2018-03-01T01:51:01.158Z,56.75
2018-03-01T01:52:11.289Z,56.84
2018-03-01T01:53:21.176Z,56.84
2018-03-01T01:54:31.300Z,56.84
2018-03-01T01:55:41.650Z,57.03
2018-03-01T01:56:51.780Z,56.93
2018-03-01T01:58:01.992Z,57.03
2018-03-01T01:59:12.413Z,56.93
2018-03-01T02:00:22.333Z,56.84
2018-03-01T02:01:32.524Z,56.75
2018-03-01T02:02:42.301Z,56.93
2018-03-01T02:03:52.483Z,56.84
2018-03-01T02:05:02.963Z,57.22
2018-03-01T02:06:12.889Z,56.93
2018-03-01T02:07:23.044Z,57.69
2018-03-01T02:08:33.167Z,57.41
2018-03-01T02:09:43.061Z,57.22
2018-03-01T02:10:53.526Z,57.6
2018-03-01T02:12:03.654Z,57.5
2018-03-01T02:13:13.861Z,57.22
2018-03-01T02:14:23.725Z,57.6
2018-03-01T02:15:33.618Z,57.5
2018-03-01T02:16:43.761Z,57.6
2018-03-01T02:17:53.661Z,57.5
2018-03-01T02:19:04.016Z,57.6
2018-03-01T02:20:13.862Z,57.69
2018-03-01T02:21:23.949Z,57.69
2018-03-01T02:22:34.073Z,57.97
2018-03-01T02:23:44.202Z,58.35
2018-03-01T02:24:54.108Z,58.35
2018-03-01T02:26:03.661Z,58.26
2018-03-01T02:27:13.570Z,58.16
2018-03-01T02:28:23.047Z,58.35
2018-03-01T02:29:32.913Z,58.16
2018-03-01T02:30:43.087Z,58.26
2018-03-01T02:31:53.063Z,58.26
2018-03-01T02:33:03.257Z,58.35
2018-03-01T02:34:13.419Z,58.16
2018-03-01T02:35:23.796Z,58.73
2018-03-01T02:36:33.545Z,58.45
2018-03-01T02:37:44.397Z,58.63
2018-03-01T02:38:54.547Z,58.35
2018-03-01T02:40:04.389Z,58.26
2018-03-01T02:41:14.007Z,58.26
2018-03-01T02:42:23.793Z,58.07
2018-03-01T02:43:33.785Z,58.73
2018-03-01T02:44:43.662Z,58.63
2018-03-01T02:45:53.777Z,58.26
2018-03-01T02:47:03.912Z,58.35
2018-03-01T02:48:14.088Z,58.26
2018-03-01T02:49:24.199Z,58.45
2018-03-01T02:50:34.181Z,58.45
2018-03-01T02:51:44.066Z,58.54
2018-03-01T02:52:54.192Z,58.54
2018-03-01T02:54:04.346Z,58.92
2018-03-01T02:55:14.284Z,58.82
2018-03-01T02:56:24.389Z,58.45
2018-03-01T02:57:33.919Z,58.45
2018-03-01T02:58:44.069Z,58.54
2018-03-01T02:59:54.178Z,58.54
2018-03-01T03:01:04.299Z,58.54
2018-03-01T03:02:14.426Z,58.73
2018-03-01T03:03:24.313Z,59.39
2018-03-01T03:04:34.417Z,59.2
2018-03-01T03:05:44.025Z,59.01
2018-03-01T03:06:53.525Z,58.92
2018-03-01T03:08:03.631Z,59.11
2018-03-01T03:09:13.517Z,59.11
2018-03-01T03:10:23.424Z,59.11
2018-03-01T03:11:33.622Z,58.92
2018-03-01T03:12:43.758Z,59.11
2018-03-01T03:13:53.919Z,59.11
2018-03-01T03:15:04.070Z,59.11
2018-03-01T03:16:17.238Z,59.2
2018-03-01T03:17:27.333Z,58.82
2018-03-01T03:18:37.444Z,58.54
2018-03-01T03:19:47.729Z,58.45
2018-03-01T03:20:57.959Z,59.2
2018-03-01T03:22:07.820Z,59.2
2018-03-01T03:23:17.753Z,58.63
2018-03-01T03:24:27.886Z,59.11
2018-03-01T03:25:37.673Z,59.2
2018-03-01T03:26:47.777Z,58.92
2018-03-01T03:27:57.887Z,58.82
2018-03-01T03:29:07.742Z,59.01
2018-03-01T03:30:17.874Z,59.01
2018-03-01T03:31:27.732Z,59.01
2018-03-01T03:32:37.900Z,59.58
2018-03-01T03:33:48.020Z,59.48
2018-03-01T03:34:58.170Z,59.67
2018-03-01T03:36:08.267Z,59.58
2018-03-01T03:37:18.405Z,59.3
2018-03-01T03:38:28.523Z,59.3
2018-03-01T03:39:38.656Z,59.58
2018-03-01T03:40:48.553Z,59.3
2018-03-01T03:41:58.669Z,59.3
2018-03-01T03:43:08.799Z,59.3
2018-03-01T03:44:18.920Z,59.67
2018-03-01T03:45:29.113Z,59.48
2018-03-01T03:46:39.385Z,59.83
2018-03-01T03:47:49.498Z,59.83
2018-03-01T03:48:59.390Z,60.02
2018-03-01T03:50:09.575Z,60.02
2018-03-01T03:51:19.440Z,60.05
2018-03-01T03:52:29.295Z,59.92
2018-03-01T03:53:39.454Z,60.14
2018-03-01T03:54:49.569Z,60.05
2018-03-01T03:55:59.755Z,60.14
2018-03-01T03:57:09.923Z,60.24
2018-03-01T03:58:20.133Z,59.86
2018-03-01T03:59:30.302Z,60.05
2018-03-01T04:00:40.454Z,59.77
2018-03-01T04:01:50.589Z,59.77
2018-03-01T04:03:00.714Z,59.86
2018-03-01T04:04:11.808Z,59.74
2018-03-01T04:05:21.677Z,60.11
2018-03-01T04:06:31.816Z,60.3
2018-03-01T04:07:42.008Z,59.83
2018-03-01T04:08:52.184Z,60.3
2018-03-01T04:10:02.013Z,60.3
2018-03-01T04:11:11.880Z,60.68
2018-03-01T04:12:22.249Z,60.3
2018-03-01T04:13:32.390Z,60.68
2018-03-01T04:14:42.591Z,60.68
2018-03-01T04:15:52.328Z,60.68
2018-03-01T04:17:02.446Z,60.49
2018-03-01T04:18:12.335Z,60.68
2018-03-01T04:19:22.513Z,60.68
2018-03-01T04:20:32.631Z,60.21
2018-03-01T04:21:42.791Z,60.11
2018-03-01T04:22:52.995Z,60.49
2018-03-01T04:24:02.877Z,60.21
2018-03-01T04:25:12.991Z,60.68
2018-03-01T04:26:23.108Z,60.86
2018-03-01T04:27:33.286Z,60.3
2018-03-01T04:28:43.162Z,60.3
2018-03-01T04:29:53.285Z,60.77
2018-03-01T04:31:03.406Z,60.58
2018-03-01T04:32:13.665Z,60.86
2018-03-01T04:33:23.517Z,60.68
2018-03-01T04:34:34.646Z,61.15
2018-03-01T04:35:44.551Z,60.68
2018-03-01T04:36:54.734Z,60.49
2018-03-01T04:38:04.848Z,60.58
2018-03-01T04:39:14.514Z,60.68
2018-03-01T04:40:24.692Z,60.58
2018-03-01T04:41:34.513Z,60.49
2018-03-01T04:42:44.338Z,60.68
2018-03-01T04:43:54.198Z,60.86
2018-03-01T04:45:04.292Z,60.86
2018-03-01T04:46:14.150Z,60.96
2018-03-01T04:47:24.045Z,60.71
2018-03-01T04:48:33.895Z,60.61
2018-03-01T04:49:43.759Z,60.42
2018-03-01T04:50:53.890Z,60.42
2018-03-01T04:52:03.993Z,60.42
2018-03-01T04:53:14.153Z,60.42
2018-03-01T04:54:24.339Z,60.52
2018-03-01T04:55:34.490Z,60.33
2018-03-01T04:56:44.643Z,60.33
2018-03-01T04:57:54.645Z,60.8
2018-03-01T04:59:04.864Z,60.71
2018-03-01T05:00:15.019Z,60.52
2018-03-01T05:01:25.204Z,60.61
2018-03-01T05:02:35.452Z,60.52
2018-03-01T05:03:45.712Z,60.8
2018-03-01T05:04:55.902Z,60.14
2018-03-01T05:06:06.029Z,60.8
2018-03-01T05:07:16.151Z,60.61
2018-03-01T05:08:26.257Z,60.8
2018-03-01T05:09:36.399Z,60.33
2018-03-01T05:10:46.515Z,60.33
2018-03-01T05:11:56.731Z,60.8
2018-03-01T05:13:06.891Z,60.68
2018-03-01T05:14:17.025Z,60.58
2018-03-01T05:15:27.145Z,60.58
2018-03-01T05:16:37.324Z,60.58
2018-03-01T05:17:47.494Z,60.96
2018-03-01T05:18:57.598Z,60.8
2018-03-01T05:20:07.745Z,60.8
2018-03-01T05:21:17.887Z,60.71
2018-03-01T05:22:28.005Z,60.71
2018-03-01T05:23:38.104Z,60.52
2018-03-01T05:24:48.268Z,60.52
2018-03-01T05:25:58.397Z,60.8
2018-03-01T05:27:08.533Z,60.14
2018-03-01T05:28:18.641Z,60.21
2018-03-01T05:29:28.515Z,60.33
2018-03-01T05:30:38.372Z,60.3
2018-03-01T05:31:48.295Z,60.58
2018-03-01T05:32:57.882Z,60.68
2018-03-01T05:34:07.796Z,60.86
2018-03-01T05:35:17.928Z,60.86
2018-03-01T05:36:28.080Z,60.58
2018-03-01T05:37:37.935Z,60.58
2018-03-01T05:38:48.054Z,60.96
2018-03-01T05:39:58.256Z,60.77
2018-03-01T05:41:08.445Z,60.86
2018-03-01T05:42:18.579Z,60.58
2018-03-01T05:43:28.755Z,60.68
2018-03-01T05:44:38.883Z,60.89
2018-03-01T05:45:49.041Z,60.61
2018-03-01T05:46:59.235Z,60.71
2018-03-01T05:48:09.374Z,60.71
2018-03-01T05:49:19.514Z,60.68
2018-03-01T05:50:29.715Z,60.21
2018-03-01T05:51:40.001Z,60.21
2018-03-01T05:52:50.230Z,60.3
2018-03-01T05:54:00.465Z,60.77
2018-03-01T05:55:10.698Z,60.77
2018-03-01T05:56:20.571Z,60.68
2018-03-01T05:57:30.692Z,60.49
2018-03-01T05:58:40.578Z,60.58
2018-03-01T05:59:50.780Z,60.58
2018-03-01T06:01:00.802Z,60.77
2018-03-01T06:02:10.382Z,60.68
2018-03-01T06:03:20.316Z,60.68
2018-03-01T06:04:30.212Z,60.96
2018-03-01T06:05:40.359Z,60.96
2018-03-01T06:06:50.141Z,60.68
2018-03-01T06:07:59.996Z,60.58
2018-03-01T06:09:10.110Z,60.96
2018-03-01T06:10:20.225Z,61.52
2018-03-01T06:11:30.067Z,61.71
2018-03-01T06:12:39.841Z,61.71
2018-03-01T06:13:49.994Z,61.33
2018-03-01T06:14:59.873Z,61.33
2018-03-01T06:16:09.822Z,61.33
2018-03-01T06:17:20.076Z,61.43
2018-03-01T06:18:30.298Z,61.62
2018-03-01T06:19:40.164Z,61.05
2018-03-01T06:20:50.282Z,60.86
2018-03-01T06:22:00.379Z,60.86
2018-03-01T06:23:10.572Z,61.52
2018-03-01T06:24:20.681Z,61.33
2018-03-01T06:25:30.610Z,61.43
2018-03-01T06:26:40.832Z,61.33
2018-03-01T06:27:50.993Z,61.43
2018-03-01T06:29:01.307Z,61.52
2018-03-01T06:30:10.704Z,61.43
2018-03-01T06:31:20.855Z,61.15
2018-03-01T06:32:31.044Z,60.77
2018-03-01T06:33:40.829Z,60.68
2018-03-01T06:34:50.930Z,60.86
2018-03-01T06:36:01.057Z,60.58
2018-03-01T06:37:11.225Z,60.77
2018-03-01T06:38:22.537Z,60.68
2018-03-01T06:39:32.384Z,60.96
2018-03-01T06:40:42.589Z,60.58
2018-03-01T06:41:52.727Z,60.96
2018-03-01T06:43:02.922Z,60.49
2018-03-01T06:44:13.205Z,61.24
2018-03-01T06:45:23.163Z,60.86
2018-03-01T06:46:33.317Z,60.58
2018-03-01T06:47:43.530Z,60.96
2018-03-01T06:48:53.642Z,60.86
2018-03-01T06:50:03.529Z,60.86
2018-03-01T06:51:13.639Z,60.86
2018-03-01T06:52:23.759Z,61.24
2018-03-01T06:53:33.889Z,61.05
2018-03-01T06:54:44.180Z,61.33
2018-03-01T06:55:54.349Z,61.24
2018-03-01T06:57:04.552Z,61.33
2018-03-01T06:58:14.458Z,61.15
2018-03-01T06:59:24.335Z,61.43
2018-03-01T07:00:34.443Z,61.24
2018-03-01T07:01:44.626Z,61.15
2018-03-01T07:02:54.531Z,61.24
2018-03-01T07:04:04.440Z,61.43
2018-03-01T07:05:14.583Z,61.24
2018-03-01T07:06:24.748Z,61.33
2018-03-01T07:07:34.458Z,61.71
2018-03-01T07:08:44.608Z,61.33
2018-03-01T07:09:54.308Z,60.77
2018-03-01T07:11:04.466Z,61.05
2018-03-01T07:12:14.476Z,60.77
2018-03-01T07:13:24.621Z,60.86
2018-03-01T07:14:34.735Z,60.77
2018-03-01T07:15:44.889Z,60.58
2018-03-01T07:16:55.109Z,60.68
2018-03-01T07:18:05.032Z,60.86
2018-03-01T07:19:14.968Z,60.68
2018-03-01T07:20:24.216Z,60.96
2018-03-01T07:21:33.667Z,60.58
2018-03-01T07:22:43.798Z,60.77
2018-03-01T07:23:53.961Z,60.11
2018-03-01T07:25:03.891Z,60.21
2018-03-01T07:26:13.581Z,60.68
2018-03-01T07:27:23.504Z,60.39
2018-03-01T07:28:33.780Z,61.15
2018-03-01T07:29:43.656Z,60.58
2018-03-01T07:30:53.786Z,60.52
2018-03-01T07:32:03.971Z,59.86
2018-03-01T07:33:14.550Z,59.58
2018-03-01T07:34:24.654Z,59.01
2018-03-01T07:35:34.791Z,59.2
2018-03-01T07:36:44.970Z,58.82
2018-03-01T07:37:54.723Z,58.63
2018-03-01T07:39:04.650Z,57.34
2018-03-01T07:40:14.810Z,55.67
2018-03-01T07:41:24.927Z,54.16
2018-03-01T07:42:35.052Z,52.4
2018-03-01T07:43:45.207Z,51.45
2018-03-01T07:44:55.406Z,50.72
2018-03-01T07:46:05.548Z,50.25
2018-03-01T07:47:15.406Z,49.49
2018-03-01T07:48:25.562Z,49.3
2018-03-01T07:49:35.762Z,49.43
2018-03-01T07:50:45.938Z,48.67
2018-03-01T07:51:56.194Z,48.39
2018-03-01T07:53:06.341Z,48.1
2018-03-01T07:54:16.293Z,47.47
2018-03-01T07:55:26.453Z,47.02
2018-03-01T07:56:36.590Z,45.79
2018-03-01T07:57:46.785Z,44.86
2018-03-01T07:58:56.943Z,42.97
2018-03-01T08:00:07.089Z,41.47
2018-03-01T08:01:17.065Z,39.77
2018-03-01T08:02:27.341Z,38.92
2018-03-01T08:03:36.913Z,39.65
2018-03-01T08:04:46.460Z,39.75
2018-03-01T08:05:56.080Z,39.11
2018-03-01T08:07:06.296Z,38.82
2018-03-01T08:08:16.133Z,38.43
2018-03-01T08:09:26.346Z,38.62
2018-03-01T08:10:36.130Z,38.05
2018-03-01T08:11:46.266Z,37.95
2018-03-01T08:12:56.128Z,38.03
2018-03-01T08:14:06.245Z,38.6
2018-03-01T08:15:15.741Z,38.71
2018-03-01T08:16:25.640Z,38.71
2018-03-01T08:17:35.277Z,37.95
2018-03-01T08:18:45.143Z,37.31
2018-03-01T08:19:55.025Z,36.46
2018-03-01T08:21:05.189Z,35.98
2018-03-01T08:22:15.086Z,35.89
2018-03-01T08:23:25.215Z,36.54
2018-03-01T08:24:35.372Z,36.65
2018-03-01T08:25:45.517Z,35.98
2018-03-01T08:26:55.308Z,35.98
2018-03-01T08:28:05.459Z,35.6
2018-03-01T08:29:15.595Z,35.62
2018-03-01T08:30:25.846Z,35.34
2018-03-01T08:31:35.993Z,34.5
2018-03-01T08:32:45.514Z,33.75
2018-03-01T08:33:55.550Z,33.73
2018-03-01T08:35:05.679Z,33.63
2018-03-01T08:36:15.954Z,33.82
2018-03-01T08:37:26.140Z,33.92
2018-03-01T08:38:36.494Z,33.92
2018-03-01T08:39:46.633Z,34.01
2018-03-01T08:40:56.857Z,33.65
2018-03-01T08:42:07.087Z,32.79
2018-03-01T08:43:17.253Z,32.51
2018-03-01T08:44:27.492Z,31.66
2018-03-01T08:45:37.705Z,32.14
2018-03-01T08:46:47.861Z,32.04
2018-03-01T08:47:58.081Z,31.77
2018-03-01T08:49:08.412Z,31.1
2018-03-01T08:50:18.630Z,30.63
2018-03-01T08:51:28.842Z,30.35
2018-03-01T08:52:39.152Z,30.44
2018-03-01T08:53:49.375Z,30.54
2018-03-01T08:54:59.317Z,30.44
2018-03-01T08:56:09.640Z,29.59
2018-03-01T08:57:19.822Z,29.78
2018-03-01T08:58:29.837Z,29.6
2018-03-01T08:59:39.380Z,29.89
2018-03-01T09:00:49.310Z,29.79
2018-03-01T09:01:59.429Z,29.33
2018-03-01T09:03:09.578Z,28.48
2018-03-01T09:04:19.721Z,27.73
2018-03-01T09:05:29.656Z,27.55
2018-03-01T09:06:39.829Z,27.62
2018-03-01T09:07:49.764Z,27.72
2018-03-01T09:08:59.803Z,28
2018-03-01T09:10:09.679Z,26.29
2018-03-01T09:11:19.835Z,26.39
2018-03-01T09:12:30.001Z,26.58
2018-03-01T09:13:39.537Z,26.58
2018-03-01T09:14:49.747Z,25.82
2018-03-01T09:15:59.551Z,26.2
2018-03-01T09:17:09.500Z,27.04
2018-03-01T09:18:19.386Z,26.95
2018-03-01T09:19:29.566Z,27.06
2018-03-01T09:20:39.711Z,27.06
2018-03-01T09:21:49.905Z,27.06
2018-03-01T09:23:00.040Z,26.12
2018-03-01T09:24:10.222Z,26.01
2018-03-01T09:25:20.220Z,25.82
2018-03-01T09:26:30.267Z,25.73
2018-03-01T09:27:40.153Z,25.35
2018-03-01T09:28:50.294Z,25.24
2018-03-01T09:30:00.430Z,25.62
2018-03-01T09:31:10.368Z,25.71
2018-03-01T09:32:20.567Z,25.73
2018-03-01T09:33:30.739Z,25.54
2018-03-01T09:34:40.969Z,25.54
2018-03-01T09:35:51.147Z,25.25
2018-03-01T09:37:01.303Z,25.17
2018-03-01T09:38:11.232Z,25.07
2018-03-01T09:39:21.378Z,24.98
2018-03-01T09:40:31.574Z,24.79
2018-03-01T09:41:41.728Z,24.42
2018-03-01T09:42:51.905Z,24.13
2018-03-01T09:44:02.133Z,24.12
2018-03-01T09:45:12.369Z,24.41
2018-03-01T09:46:22.540Z,24.51
2018-03-01T09:47:32.824Z,24.12
2018-03-01T09:48:42.709Z,24.41
2018-03-01T09:49:52.601Z,24.22
2018-03-01T09:51:02.771Z,24.41
2018-03-01T09:52:12.911Z,24.69
2018-03-01T09:53:23.073Z,24.22
2018-03-01T09:54:32.867Z,24.12
2018-03-01T09:55:43.024Z,24.22
2018-03-01T09:56:53.183Z,24.21
2018-03-01T09:58:03.408Z,23.92
2018-03-01T09:59:13.605Z,24.11
2018-03-01T10:00:23.823Z,24.01
2018-03-01T10:01:33.975Z,24.19
2018-03-01T10:02:44.167Z,24.38
2018-03-01T10:03:54.144Z,24.57
2018-03-01T10:05:04.369Z,24.86
2018-03-01T10:06:14.744Z,24.76
2018-03-01T10:07:24.665Z,24.49
2018-03-01T10:08:34.310Z,24.21
2018-03-01T10:09:44.194Z,24.29
2018-03-01T10:10:54.364Z,24.67
2018-03-01T10:12:04.578Z,24.67
2018-03-01T10:13:14.379Z,24.77
2018-03-01T10:14:24.562Z,24.3
2018-03-01T10:15:34.773Z,24.02
2018-03-01T10:16:44.759Z,23.35
2018-03-01T10:17:54.638Z,23.35
2018-03-01T10:19:04.911Z,23.34
2018-03-01T10:20:15.278Z,23.24
2018-03-01T10:21:25.766Z,23.63
2018-03-01T10:22:35.727Z,23.33
2018-03-01T10:23:45.704Z,23.61
2018-03-01T10:24:55.927Z,23.9
2018-03-01T10:26:05.827Z,23.88
2018-03-01T10:27:15.726Z,24.36
2018-03-01T10:28:25.931Z,24.74
2018-03-01T10:29:36.101Z,24.94
2018-03-01T10:30:46.299Z,24.37
2018-03-01T10:31:56.551Z,24.18
2018-03-01T10:33:06.477Z,23.8
2018-03-01T10:34:16.715Z,23.52
2018-03-01T10:35:26.915Z,24.28
2018-03-01T10:36:37.175Z,24.18
2018-03-01T10:37:47.092Z,23.99
2018-03-01T10:38:57.272Z,23.8
2018-03-01T10:40:07.433Z,23.14
2018-03-01T10:41:17.603Z,23.24
2018-03-01T10:42:27.315Z,23.24
2018-03-01T10:43:36.991Z,22.85
2018-03-01T10:44:47.128Z,23.04
2018-03-01T10:45:57.093Z,23.33
2018-03-01T10:47:07.251Z,23.33
2018-03-01T10:48:17.462Z,23.33
2018-03-01T10:49:27.732Z,23.15
2018-03-01T10:50:37.941Z,22.86
2018-03-01T10:51:47.314Z,22.67
2018-03-01T10:52:57.482Z,22.21
2018-03-01T10:54:07.094Z,22.31
2018-03-01T10:55:16.975Z,22.03
2018-03-01T10:56:27.087Z,21.08
2018-03-01T10:57:37.281Z,21.28
2018-03-01T10:58:47.458Z,20.32
2018-03-01T10:59:57.361Z,20.42
2018-03-01T11:01:07.585Z,20.61
2018-03-01T11:02:17.379Z,20.8
2018-03-01T11:03:27.378Z,19.95
2018-03-01T11:04:37.218Z,20.34
2018-03-01T11:05:47.139Z,20.24
2018-03-01T11:06:57.199Z,20.24
2018-03-01T11:08:07.402Z,19.57
2018-03-01T11:09:17.594Z,19.57
2018-03-01T11:10:27.792Z,19.76
2018-03-01T11:11:38.089Z,19.85
2018-03-01T11:12:48.244Z,19.66
2018-03-01T11:13:58.419Z,19.56
2018-03-01T11:15:08.604Z,19.74
2018-03-01T11:16:18.939Z,20.02
2018-03-01T11:17:29.098Z,19.92
2018-03-01T11:18:39.344Z,20.02
2018-03-01T11:19:48.922Z,20.4
2018-03-01T11:20:58.695Z,20.67
2018-03-01T11:22:08.939Z,20.86
2018-03-01T11:23:19.227Z,21.15
2018-03-01T11:24:29.524Z,21.53
2018-03-01T11:25:39.404Z,21.34
2018-03-01T11:26:49.603Z,21.43
2018-03-01T11:27:59.818Z,21.15
2018-03-01T11:29:09.964Z,21.05
2018-03-01T11:30:20.309Z,21.15
2018-03-01T11:31:30.066Z,21.05
2018-03-01T11:32:40.239Z,21.72
2018-03-01T11:33:50.423Z,21.34
2018-03-01T11:35:00.599Z,21.53
2018-03-01T11:36:10.688Z,21.81
2018-03-01T11:37:20.587Z,22.08
2018-03-01T11:38:30.521Z,22.38
2018-03-01T11:39:40.756Z,22.09
2018-03-01T11:40:51.062Z,21.82
2018-03-01T11:42:00.910Z,21.44
2018-03-01T11:43:10.550Z,21.15
2018-03-01T11:44:20.700Z,21.15
2018-03-01T11:45:30.593Z,21.06
2018-03-01T11:46:40.822Z,20.96
2018-03-01T11:47:51.248Z,20.96
2018-03-01T11:49:01.161Z,21.34
2018-03-01T11:50:11.069Z,21.54
2018-03-01T11:51:21.041Z,21.44
2018-03-01T11:52:30.955Z,20.97
2018-03-01T11:53:40.894Z,21.17
2018-03-01T11:54:51.024Z,20.41
2018-03-01T11:56:01.005Z,20.22
2018-03-01T11:57:11.182Z,20.22
2018-03-01T11:58:21.265Z,20.12
2018-03-01T11:59:31.240Z,20.03
2018-03-01T12:00:40.842Z,20.31
2018-03-01T12:01:51.018Z,20.6
2018-03-01T12:03:01.237Z,20.12
2018-03-01T12:04:11.374Z,19.84
2018-03-01T12:05:21.362Z,19.46
2018-03-01T12:06:31.755Z,19.73
2018-03-01T12:07:41.911Z,20.21
2018-03-01T12:08:52.052Z,20.5
2018-03-01T12:10:01.712Z,20.02
2018-03-01T12:11:11.880Z,19.73
2018-03-01T12:12:22.134Z,19.45
2018-03-01T12:13:32.818Z,19.54
2018-03-01T12:14:43.110Z,19.35
2018-03-01T12:15:53.339Z,19.26
2018-03-01T12:17:03.557Z,19.45
2018-03-01T12:18:13.929Z,19.45
2018-03-01T12:19:24.115Z,19.54
2018-03-01T12:20:34.529Z,19.83
2018-03-01T12:21:44.845Z,20.2
2018-03-01T12:22:55.239Z,20.1
2018-03-01T12:24:05.427Z,20.2
2018-03-01T12:25:15.651Z,20.39
2018-03-01T12:26:26.134Z,20.59
2018-03-01T12:27:36.425Z,20.5
2018-03-01T12:28:46.680Z,20.11
2018-03-01T12:29:57.042Z,20.12
2018-03-01T12:31:07.329Z,19.45
2018-03-01T12:32:17.498Z,19.64
2018-03-01T12:33:27.660Z,19.83
2018-03-01T12:34:37.920Z,19.64
2018-03-01T12:35:48.142Z,20.1
2018-03-01T12:36:58.322Z,20.2
2018-03-01T12:38:08.116Z,20.2
2018-03-01T12:39:18.286Z,20.5
2018-03-01T12:40:28.516Z,20.4
2018-03-01T12:41:38.684Z,20.11
2018-03-01T12:42:48.954Z,19.56
2018-03-01T12:43:59.130Z,19.27
2018-03-01T12:45:09.275Z,19.28
2018-03-01T12:46:19.441Z,19.28
2018-03-01T12:47:29.726Z,18.8
2018-03-01T12:48:40.383Z,18.7
2018-03-01T12:49:54.380Z,18.7
2018-03-01T12:51:05.560Z,18.79
2018-03-01T12:52:15.733Z,18.89
2018-03-01T12:53:26.876Z,18.89
2018-03-01T12:54:37.053Z,19.08
2018-03-01T12:55:48.173Z,19.18
2018-03-01T12:56:58.392Z,18.79
2018-03-01T12:58:08.218Z,19.07
2018-03-01T12:59:18.401Z,19.45
2018-03-01T13:00:28.679Z,19.54
2018-03-01T13:01:38.842Z,20.2
2018-03-01T13:02:49.087Z,20.21
2018-03-01T13:03:59.482Z,20.02
2018-03-01T13:05:09.661Z,20.02
2018-03-01T13:06:19.839Z,20.4
2018-03-01T13:07:29.759Z,20.11
2018-03-01T13:08:39.952Z,20.11
2018-03-01T13:09:49.889Z,20.11
2018-03-01T13:10:59.821Z,20.02
2018-03-01T13:12:09.847Z,20.4
2018-03-01T13:13:19.560Z,20.02
2018-03-01T13:14:29.713Z,20.31
2018-03-01T13:15:39.673Z,20.21
2018-03-01T13:16:49.908Z,20.2
2018-03-01T13:18:00.138Z,20.48
2018-03-01T13:19:10.337Z,20.76
2018-03-01T13:20:20.377Z,20.95
2018-03-01T13:21:29.972Z,20.85
2018-03-01T13:22:40.084Z,21.04
2018-03-01T13:23:50.264Z,21.33
2018-03-01T13:25:00.440Z,21.42
2018-03-01T13:26:10.636Z,21.61
2018-03-01T13:27:20.785Z,21.61
2018-03-01T13:28:31.038Z,21.61
2018-03-01T13:38:29.408Z,23.38
2018-03-01T13:39:38.788Z,23.47
2018-03-01T13:40:48.481Z,23.75
2018-03-01T13:41:58.622Z,24.13
2018-03-01T13:43:08.505Z,24.23
2018-03-01T13:44:18.727Z,24.5
2018-03-01T13:45:28.979Z,24.6
2018-03-01T13:46:39.186Z,24.89
2018-03-01T13:47:49.392Z,24.8
2018-03-01T13:48:59.351Z,24.89
2018-03-01T13:50:09.296Z,24.89
2018-03-01T13:51:19.465Z,24.89
2018-03-01T13:52:29.305Z,24.99
2018-03-01T13:53:39.520Z,24.89
2018-03-01T13:54:49.699Z,24.8
2018-03-01T13:55:59.510Z,24.89
2018-03-01T13:57:09.428Z,24.8
2018-03-01T13:58:19.813Z,24.89
2018-03-01T13:59:29.724Z,24.89
2018-03-01T14:00:39.637Z,24.99
2018-03-01T14:01:49.584Z,24.89
2018-03-01T14:02:59.679Z,24.8
2018-03-01T14:04:09.085Z,25.08
2018-03-01T14:05:19.232Z,25.18
2018-03-01T14:06:29.416Z,25.37
2018-03-01T14:07:39.042Z,25.54
2018-03-01T14:08:49.446Z,25.35
2018-03-01T14:09:59.478Z,25.45
2018-03-01T14:11:09.624Z,25.54
2018-03-01T14:12:19.482Z,25.73
2018-03-01T14:13:29.380Z,26.2
2018-03-01T14:14:39.602Z,26.11
2018-03-01T14:15:49.542Z,26.2
2018-03-01T14:16:59.697Z,26.11
2018-03-01T14:18:09.850Z,26.2
2018-03-01T14:19:20.039Z,26.01
2018-03-01T14:20:30.182Z,26.3
2018-03-01T14:22:12.244Z,26.28
2018-03-01T14:23:22.437Z,26.85
2018-03-01T14:24:32.335Z,26.95
2018-03-01T14:25:42.533Z,26.66
2018-03-01T14:26:52.479Z,27.23
2018-03-01T14:28:02.371Z,27.04
2018-03-01T14:29:13.548Z,27.14
2018-03-01T14:30:23.736Z,27.14
2018-03-01T14:31:33.683Z,26.85
2018-03-01T14:32:43.636Z,27.23
2018-03-01T14:33:54.553Z,27.23
2018-03-01T14:35:04.794Z,27.42
2018-03-01T14:36:14.841Z,27.51
2018-03-01T14:37:25.055Z,27.8
2018-03-01T14:38:34.840Z,27.89
2018-03-01T14:39:44.743Z,27.89
2018-03-01T14:40:54.588Z,27.8
2018-03-01T14:42:04.868Z,27.51
2018-03-01T14:43:15.051Z,27.51
2018-03-01T14:44:24.963Z,27.61
2018-03-01T14:45:35.781Z,27.8
2018-03-01T14:46:45.942Z,27.98
2018-03-01T14:47:56.111Z,28.08
2018-03-01T14:49:06.016Z,28.36
2018-03-01T14:50:16.281Z,28.27
2018-03-01T14:51:26.162Z,28.65
2018-03-01T14:52:36.320Z,28.46
2018-03-01T14:53:46.462Z,28.55
2018-03-01T14:54:56.423Z,28.55
2018-03-01T14:56:06.619Z,28.46
2018-03-01T14:57:16.789Z,28.46
2018-03-01T14:58:26.957Z,28.27
2018-03-01T14:59:36.857Z,28.17
2018-03-01T15:00:47.061Z,28.55
2018-03-01T15:01:56.611Z,28.65
2018-03-01T15:03:06.543Z,28.65
2018-03-01T15:04:16.737Z,28.55
2018-03-01T15:05:26.923Z,28.55
2018-03-01T15:06:37.068Z,28.92
2018-03-01T15:07:46.725Z,28.82
2018-03-01T15:08:56.926Z,28.54
2018-03-01T15:10:07.115Z,28.82
2018-03-01T15:11:17.676Z,28.73
2018-03-01T15:12:28.339Z,28.73
2018-03-01T15:13:38.712Z,29.11
2018-03-01T15:14:52.264Z,29.2